sensor_id;sensor_type;location;lat;lon;timestamp;pressure;altitude;pressure_sealevel;temperature;humidity
79780;BME280;69258;52.050;10.334;2023-10-08T00:04:03;100022.00;;;20.64;59.22
79780;BME280;69258;52.050;10.334;2023-10-08T00:19:08;100061.34;;;20.63;59.37
79780;BME280;69258;52.050;10.334;2023-10-08T00:34:11;100103.34;;;20.63;59.57
79780;BME280;69258;52.050;10.334;2023-10-08T00:49:15;100124.53;;;20.58;59.44
79780;BME280;69258;52.050;10.334;2023-10-08T01:04:18;100180.75;;;20.58;59.66
79780;BME280;69258;52.050;10.334;2023-10-08T01:19:21;100205.88;;;20.57;59.73
79780;BME280;69258;52.050;10.334;2023-10-08T01:34:23;100255.06;;;20.56;59.59
79780;BME280;69258;52.050;10.334;2023-10-08T01:49:26;100274.03;;;20.54;59.72
79780;BME280;69258;52.050;10.334;2023-10-08T02:04:28;100293.56;;;20.55;60.02
79780;BME280;69258;52.050;10.334;2023-10-08T02:19:32;100342.97;;;20.52;59.49
79780;BME280;69258;52.050;10.334;2023-10-08T02:34:35;100321.94;;;20.49;59.16
79780;BME280;69258;52.050;10.334;2023-10-08T02:49:37;100329.31;;;20.47;59.74
79780;BME280;69258;52.050;10.334;2023-10-08T03:04:43;100325.00;;;20.46;59.63
79780;BME280;69258;52.050;10.334;2023-10-08T03:19:46;100342.06;;;20.45;59.09
79780;BME280;69258;52.050;10.334;2023-10-08T03:34:50;100320.00;;;20.43;59.65
79780;BME280;69258;52.050;10.334;2023-10-08T03:49:52;100358.50;;;20.42;58.96
79780;BME280;69258;52.050;10.334;2023-10-08T04:04:55;100375.59;;;20.41;59.52
79780;BME280;69258;52.050;10.334;2023-10-08T04:19:57;100389.13;;;20.40;59.15
79780;BME280;69258;52.050;10.334;2023-10-08T04:34:59;100404.41;;;20.39;58.88
79780;BME280;69258;52.050;10.334;2023-10-08T04:50:02;100427.00;;;20.37;59.24
79780;BME280;69258;52.050;10.334;2023-10-08T05:05:04;100421.63;;;20.37;59.01
79780;BME280;69258;52.050;10.334;2023-10-08T05:20:07;100453.97;;;20.35;58.95
79780;BME280;69258;52.050;10.334;2023-10-08T05:35:09;100445.94;;;20.35;59.27
79780;BME280;69258;52.050;10.334;2023-10-08T05:50:12;100492.22;;;20.36;59.05
79780;BME280;69258;52.050;10.334;2023-10-08T06:05:15;100509.50;;;20.33;59.18
79780;BME280;69258;52.050;10.334;2023-10-08T06:20:17;100517.16;;;20.36;59.24
79780;BME280;69258;52.050;10.334;2023-10-08T06:35:20;100546.25;;;20.39;58.56
79780;BME280;69258;52.050;10.334;2023-10-08T06:50:23;100559.81;;;20.38;58.34
79780;BME280;69258;52.050;10.334;2023-10-08T07:05:25;100587.59;;;20.37;58.43
79780;BME280;69258;52.050;10.334;2023-10-08T07:20:27;100600.59;;;20.40;58.44
79780;BME280;69258;52.050;10.334;2023-10-08T07:35:29;100622.69;;;20.42;58.69
79780;BME280;69258;52.050;10.334;2023-10-08T07:50:32;100661.00;;;20.42;58.78
79780;BME280;69258;52.050;10.334;2023-10-08T08:05:35;100621.03;;;20.41;58.30
79780;BME280;69258;52.050;10.334;2023-10-08T08:20:37;100648.25;;;20.44;58.60
79780;BME280;69258;52.050;10.334;2023-10-08T08:35:40;100665.16;;;20.45;58.44
79780;BME280;69258;52.050;10.334;2023-10-08T08:50:44;100702.13;;;20.49;58.48
79780;BME280;69258;52.050;10.334;2023-10-08T09:05:48;100691.19;;;20.51;58.60
79780;BME280;69258;52.050;10.334;2023-10-08T09:20:50;100698.91;;;20.54;58.47
79780;BME280;69258;52.050;10.334;2023-10-08T09:35:53;100730.47;;;20.58;59.18
79780;BME280;69258;52.050;10.334;2023-10-08T09:50:58;100742.69;;;20.61;58.98
79780;BME280;69258;52.050;10.334;2023-10-08T10:06:00;100734.31;;;20.64;59.16
79780;BME280;69258;52.050;10.334;2023-10-08T10:36:11;100723.69;;;20.71;58.65
79780;BME280;69258;52.050;10.334;2023-10-08T10:51:14;100741.28;;;20.73;58.72
79780;BME280;69258;52.050;10.334;2023-10-08T11:06:21;100756.78;;;20.78;59.22
79780;BME280;69258;52.050;10.334;2023-10-08T11:21:24;100736.66;;;20.82;58.38
79780;BME280;69258;52.050;10.334;2023-10-08T11:36:28;100737.97;;;20.86;58.74
79780;BME280;69258;52.050;10.334;2023-10-08T11:51:35;100718.84;;;20.89;58.54
79780;BME280;69258;52.050;10.334;2023-10-08T12:06:37;100738.06;;;20.92;58.53
79780;BME280;69258;52.050;10.334;2023-10-08T12:21:41;100728.88;;;20.95;59.33
79780;BME280;69258;52.050;10.334;2023-10-08T12:36:43;100723.59;;;21.01;59.69
79780;BME280;69258;52.050;10.334;2023-10-08T12:51:45;100705.16;;;21.06;59.98
79780;BME280;69258;52.050;10.334;2023-10-08T13:06:48;100674.63;;;21.07;60.44
79780;BME280;69258;52.050;10.334;2023-10-08T13:21:51;100650.50;;;21.07;60.20
79780;BME280;69258;52.050;10.334;2023-10-08T13:36:54;100661.06;;;21.09;59.69
79780;BME280;69258;52.050;10.334;2023-10-08T13:51:57;100675.28;;;21.09;59.53
79780;BME280;69258;52.050;10.334;2023-10-08T14:06:59;100669.94;;;21.09;59.61
79780;BME280;69258;52.050;10.334;2023-10-08T14:22:04;100677.13;;;21.09;59.45
79780;BME280;69258;52.050;10.334;2023-10-08T14:37:07;100649.50;;;21.08;59.86
79780;BME280;69258;52.050;10.334;2023-10-08T14:52:10;100663.56;;;21.10;59.26
79780;BME280;69258;52.050;10.334;2023-10-08T15:07:13;100683.81;;;21.13;59.65
79780;BME280;69258;52.050;10.334;2023-10-08T15:22:15;100683.66;;;21.15;60.26
79780;BME280;69258;52.050;10.334;2023-10-08T15:37:18;100695.19;;;21.15;60.43
79780;BME280;69258;52.050;10.334;2023-10-08T15:52:20;100686.13;;;21.16;60.17
79780;BME280;69258;52.050;10.334;2023-10-08T16:07:22;100661.19;;;21.16;60.83
79780;BME280;69258;52.050;10.334;2023-10-08T16:22:24;100644.25;;;21.15;60.88
79780;BME280;69258;52.050;10.334;2023-10-08T16:37:27;100637.25;;;21.14;60.49
79780;BME280;69258;52.050;10.334;2023-10-08T16:52:29;100631.06;;;21.13;60.66
79780;BME280;69258;52.050;10.334;2023-10-08T17:07:31;100625.03;;;21.11;60.84
79780;BME280;69258;52.050;10.334;2023-10-08T17:22:33;100632.41;;;21.09;60.13
79780;BME280;69258;52.050;10.334;2023-10-08T17:37:36;100600.25;;;21.09;60.14
79780;BME280;69258;52.050;10.334;2023-10-08T17:52:38;100587.88;;;21.08;60.81
79780;BME280;69258;52.050;10.334;2023-10-08T18:07:48;100597.94;;;21.06;60.46
79780;BME280;69258;52.050;10.334;2023-10-08T18:22:52;100544.34;;;21.06;60.23
79780;BME280;69258;52.050;10.334;2023-10-08T18:37:54;100615.22;;;21.04;60.63
79780;BME280;69258;52.050;10.334;2023-10-08T18:52:56;100499.34;;;21.02;60.17
79780;BME280;69258;52.050;10.334;2023-10-08T19:07:59;100551.09;;;21.02;60.60
79780;BME280;69258;52.050;10.334;2023-10-08T19:23:02;100473.94;;;20.98;60.22
79780;BME280;69258;52.050;10.334;2023-10-08T19:38:05;100494.56;;;20.97;60.18
79780;BME280;69258;52.050;10.334;2023-10-08T19:53:13;100459.72;;;20.97;60.05
79780;BME280;69258;52.050;10.334;2023-10-08T20:08:15;100453.53;;;20.97;60.08
79780;BME280;69258;52.050;10.334;2023-10-08T20:23:17;100457.41;;;20.94;59.84
79780;BME280;69258;52.050;10.334;2023-10-08T20:38:20;100403.00;;;20.94;60.13
79780;BME280;69258;52.050;10.334;2023-10-08T20:53:23;100385.47;;;20.91;59.76
79780;BME280;69258;52.050;10.334;2023-10-08T21:08:25;100385.66;;;20.90;59.94
79780;BME280;69258;52.050;10.334;2023-10-08T21:23:27;100347.31;;;20.89;59.51
79780;BME280;69258;52.050;10.334;2023-10-08T21:38:29;100322.75;;;20.86;59.50
79780;BME280;69258;52.050;10.334;2023-10-08T21:53:31;100307.91;;;20.83;60.14
79780;BME280;69258;52.050;10.334;2023-10-08T22:08:33;100290.16;;;20.82;59.12
79780;BME280;69258;52.050;10.334;2023-10-08T22:23:35;100232.84;;;20.77;59.30
79780;BME280;69258;52.050;10.334;2023-10-08T22:38:37;100230.16;;;20.77;59.63
79780;BME280;69258;52.050;10.334;2023-10-08T22:53:43;100185.00;;;20.74;59.12
79780;BME280;69258;52.050;10.334;2023-10-08T23:08:46;100164.81;;;20.71;59.21
79780;BME280;69258;52.050;10.334;2023-10-08T23:23:49;100155.75;;;20.72;58.99
79780;BME280;69258;52.050;10.334;2023-10-08T23:38:53;100161.50;;;20.69;58.95
79780;BME280;69258;52.050;10.334;2023-10-08T23:53:56;100156.97;;;20.70;59.02
